Date,TemperatureHighF,TemperatureAvgF,TemperatureLowF,DewpointHighF,DewpointAvgF,DewpointLowF,HumidityHigh,HumidityAvg,HumidityLow,PressureMaxIn,PressureMinIn,WindSpeedMaxMPH,WindSpeedAvgMPH,GustSpeedMaxMPH,PrecipitationSumIn
2013-1-1,76.9,65.4,54.6,64.0,59.0,52.0,92,81,61,30.22,30.05,5,0,10,0.00
2013-1-2,81.2,68.9,59.7,66.7,62.1,56.8,92,80,57,30.08,29.98,4,0,8,0.00
2013-1-3,80.3,67.3,59.0,67.6,62.8,56.7,92,86,66,30.15,30.02,3,0,9,0.00
2013-1-4,71.5,67.0,63.8,66.9,63.9,60.9,92,90,85,30.25,30.12,3,1,7,0.00
2013-1-5,76.7,69.0,61.5,69.5,64.7,58.8,92,87,75,30.26,30.17,5,1,9,0.49
2013-1-6,80.5,70.3,62.1,71.7,66.7,59.8,92,89,73,30.20,30.06,3,0,10,0.63
2013-1-7,74.6,69.1,64.9,67.7,65.4,62.5,93,88,79,30.19,30.10,5,1,14,0.15
2013-1-8,77.1,70.7,65.9,70.8,67.3,63.8,93,89,79,30.21,30.11,9,0,17,0.01
2013-1-9,78.7,74.0,68.9,72.6,70.2,66.5,92,88,80,30.30,30.19,7,2,15,0.10
2013-1-10,78.2,72.6,66.2,70.4,67.2,63.8,92,83,69,30.31,30.21,12,2,18,0.00
2013-1-11,77.6,71.4,65.4,69.1,66.4,62.4,92,85,70,30.27,30.17,6,1,15,0.00
2013-1-12,78.7,69.5,61.6,70.7,64.4,59.3,92,84,68,30.20,30.10,4,0,12,0.00
2013-1-13,78.5,70.0,62.1,68.0,64.5,59.1,92,83,66,30.16,30.09,9,1,13,0.00
2013-1-14,78.3,69.6,61.0,68.8,64.4,58.4,92,84,71,30.18,30.12,7,1,12,0.00
2013-1-15,79.0,68.9,60.4,69.6,63.6,58.1,92,84,71,30.15,30.06,4,0,13,0.00
2013-1-16,82.3,69.9,58.9,68.3,64.0,56.6,92,82,58,30.11,30.01,4,0,9,0.00
2013-1-17,82.4,69.3,56.4,70.2,62.9,49.3,92,81,59,30.09,29.92,10,3,22,0.00
2013-1-18,69.7,59.1,44.4,60.6,51.6,38.6,91,76,64,30.25,30.09,7,2,16,0.19
2013-1-19,74.2,66.5,62.7,65.5,63.1,60.0,92,89,74,30.24,30.12,5,1,11,0.51
2013-1-20,74.7,66.7,62.8,68.9,63.2,60.5,92,89,75,30.16,30.05,6,0,8,0.01
2013-1-21,78.8,67.2,61.5,69.1,63.6,59.2,93,89,67,30.08,29.97,2,0,8,0.28
2013-1-22,69.9,62.3,57.4,59.3,54.6,49.7,93,77,60,30.25,30.02,7,1,15,0.01
2013-1-23,55.2,52.7,50.9,49.8,45.9,43.6,82,77,74,30.30,30.24,2,0,5,0.00
2013-1-24,72.2,58.3,46.1,53.7,49.3,42.5,89,74,48,30.32,30.23,2,0,7,0.00
2013-1-25,77.1,61.1,50.9,57.1,53.3,48.4,92,77,49,30.30,30.19,5,0,9,0.00
2013-1-26,77.3,61.7,49.9,58.1,52.8,46.5,90,75,40,30.28,30.16,5,0,9,0.00
2013-1-27,75.9,63.2,50.5,65.1,57.5,48.0,92,83,61,30.31,30.22,3,0,10,0.00
2013-1-28,76.0,71.0,67.9,68.8,65.7,63.3,90,84,71,30.34,30.24,4,1,13,0.00
2013-1-29,77.5,69.5,62.7,70.1,65.8,60.3,92,88,77,30.25,30.13,9,2,17,0.00
2013-1-30,83.6,72.4,63.3,68.2,64.2,60.8,92,77,53,30.12,29.93,11,3,18,0.00
2013-1-31,69.3,61.1,50.4,66.2,51.4,37.0,92,73,43,30.20,29.92,9,2,15,0.05
2013-2-1,67.7,54.3,44.3,51.9,42.9,35.6,87,66,51,30.32,30.20,8,1,11,0.00
2013-2-2,71.7,57.1,43.5,55.8,49.4,39.9,89,77,56,30.29,30.14,5,0,9,0.00
2013-2-3,71.1,57.5,48.9,53.3,48.6,42.1,90,75,41,30.20,30.07,3,0,11,0.00
2013-2-4,71.0,56.4,43.6,52.3,44.9,37.2,89,68,32,30.14,30.02,5,0,12,0.00
2013-2-5,77.5,60.1,46.3,56.6,50.1,41.1,88,72,43,30.11,30.01,3,0,8,0.00
2013-2-6,77.3,66.5,55.0,65.8,60.1,52.4,92,81,65,30.12,30.02,4,0,11,0.00
2013-2-7,79.1,70.4,58.7,67.8,63.3,56.1,92,79,62,30.08,29.92,8,1,14,0.00
2013-2-8,81.5,69.0,60.3,65.0,61.8,57.4,92,79,45,30.06,29.88,5,1,15,0.00
2013-2-9,74.6,66.2,57.2,63.3,60.1,54.9,92,81,67,30.19,30.05,7,1,12,0.00
2013-2-10,75.1,69.4,64.9,61.8,59.9,57.9,79,72,61,30.28,30.17,13,2,17,0.00
2013-2-11,81.2,71.4,61.5,65.6,63.1,58.5,91,76,53,30.23,30.09,10,2,14,0.00
2013-2-12,84.8,72.4,60.8,68.9,64.6,57.8,92,78,51,30.12,29.95,10,1,12,0.00
2013-2-13,86.3,74.9,66.6,71.5,67.1,59.6,92,78,53,29.98,29.84,10,3,18,0.00
2013-2-14,72.6,65.1,60.2,67.0,61.1,57.9,92,87,77,30.04,29.93,4,1,9,0.79
2013-2-15,64.1,60.8,58.0,61.1,58.4,55.7,93,92,89,30.06,29.96,7,0,10,0.05
2013-2-16,68.9,60.4,49.2,57.9,50.8,37.3,93,73,46,30.08,29.89,13,4,23,0.00
2013-2-17,56.0,46.5,39.1,38.3,28.6,21.2,80,51,30,30.34,30.09,9,2,17,0.00
2013-2-18,66.6,53.8,39.1,52.2,41.7,27.6,85,64,52,30.34,30.24,6,1,14,0.00
2013-2-19,77.8,65.2,50.1,61.0,56.1,47.0,92,74,50,30.22,30.07,5,1,11,0.01
2013-2-20,75.0,65.1,55.5,65.1,60.0,52.9,92,84,71,30.13,30.02,3,0,7,0.00
2013-2-21,79.3,69.0,57.9,68.8,63.1,55.6,92,82,59,30.11,30.02,8,1,11,0.00
2013-2-22,80.8,72.2,61.5,72.2,67.2,58.8,92,85,73,30.10,30.00,8,2,13,0.00
2013-2-23,87.4,75.1,66.4,71.5,67.4,64.0,92,79,51,30.03,29.88,9,1,16,0.23
2013-2-24,84.9,73.1,67.5,70.6,67.8,65.1,92,84,56,29.98,29.89,8,2,12,0.00
2013-2-25,85.0,74.9,67.4,72.9,69.0,65.0,92,83,58,29.92,29.79,7,1,13,0.01
2013-2-26,84.5,76.3,69.2,72.7,69.3,65.5,92,80,61,29.86,29.76,10,3,22,0.01
2013-2-27,78.7,67.8,61.1,65.2,61.6,58.3,92,81,57,29.96,29.87,6,1,11,0.00
2013-2-28,74.2,62.7,53.8,57.3,51.0,46.7,88,68,38,30.01,29.88,7,1,11,0.00
2013-3-1,66.8,58.1,54.8,52.2,46.2,39.9,80,65,45,29.99,29.91,8,2,13,0.00
2013-3-2,57.7,52.7,44.0,43.0,38.5,35.4,78,59,46,30.04,29.95,9,3,17,0.00
2013-3-3,57.5,47.5,38.8,39.4,35.8,31.5,85,65,48,30.17,29.98,17,4,23,0.00
2013-3-4,63.4,49.5,37.5,42.7,36.3,31.4,86,63,36,30.25,30.14,6,1,11,0.00
2013-3-5,79.2,60.3,42.5,59.0,49.2,39.3,91,70,38,30.19,30.05,5,1,12,0.00
2013-3-6,69.7,60.7,48.8,60.7,45.6,31.1,91,62,26,30.12,29.95,10,3,21,0.00
2013-3-7,67.8,54.2,42.1,51.8,43.7,33.5,87,68,54,30.20,30.09,6,1,10,0.00
2013-3-8,71.5,56.8,43.9,52.5,47.6,41.5,92,73,46,30.23,30.13,5,0,11,0.00
2013-3-9,72.1,60.3,48.3,57.4,51.3,45.1,91,74,53,30.22,30.13,4,0,11,0.00
2013-3-10,74.9,64.2,52.7,59.7,55.7,49.8,92,75,57,30.17,30.10,8,1,15,0.00
2013-3-11,75.5,68.5,59.0,63.1,59.6,55.3,89,74,60,30.12,29.95,12,2,17,0.00
2013-3-12,75.6,69.8,63.8,69.4,64.3,59.5,90,83,73,30.00,29.90,6,1,13,0.02
2013-3-13,72.2,60.9,51.3,58.3,51.6,47.0,91,74,45,30.14,30.00,7,2,15,0.00
2013-3-14,66.3,55.5,46.7,48.6,44.9,38.5,87,69,46,30.24,30.13,7,1,13,0.00
2013-3-15,69.8,55.5,43.2,49.8,45.5,39.3,89,71,46,30.28,30.17,4,0,10,0.00
2013-3-16,80.0,60.9,44.1,55.8,48.9,41.1,92,68,33,30.21,30.07,7,1,13,0.00
2013-3-17,75.0,64.5,49.8,60.4,55.6,46.4,90,74,54,30.17,30.03,7,1,14,0.00
2013-3-18,81.7,71.2,62.7,66.8,62.8,59.0,92,76,56,30.08,29.92,5,1,14,0.04
2013-3-19,81.1,70.1,63.5,67.5,64.3,61.1,92,83,61,30.01,29.89,2,0,8,0.00
2013-3-20,82.5,69.6,61.8,68.2,62.5,59.2,92,79,58,29.97,29.79,4,1,15,0.00
2013-3-21,70.9,62.0,52.7,60.4,49.3,41.5,91,67,36,29.95,29.83,5,1,10,0.00
2013-3-22,76.1,62.5,46.0,65.2,53.4,42.3,88,74,47,30.03,29.92,6,1,12,0.02
2013-3-23,87.4,75.8,66.9,73.1,67.8,64.5,92,78,55,29.98,29.76,11,2,16,0.57
2013-3-24,89.0,75.1,68.4,72.6,68.1,65.0,92,80,52,29.87,29.64,15,3,26,0.42
2013-3-25,75.9,68.5,56.0,69.4,53.3,38.0,92,63,31,30.01,29.73,10,3,18,0.00
2013-3-26,63.7,54.8,46.3,42.0,35.3,29.5,70,49,32,30.23,30.01,16,3,20,0.00
2013-3-27,64.7,52.5,42.3,43.7,39.1,32.2,84,61,43,30.29,30.20,8,1,11,0.00
2013-3-28,71.8,55.6,43.3,47.6,43.6,39.7,88,67,36,30.29,30.20,4,0,8,0.00
2013-3-29,73.9,59.6,46.7,52.4,47.8,43.1,89,68,40,30.33,30.22,4,0,9,0.00
2013-3-30,75.8,62.9,49.6,56.8,52.1,46.5,91,70,47,30.27,30.16,7,1,13,0.00
2013-3-31,83.8,68.3,55.1,65.5,59.2,51.3,90,74,43,30.19,30.02,11,2,15,0.00
2013-4-1,84.4,72.8,62.7,69.5,63.3,60.0,92,74,49,30.05,29.91,5,1,16,0.00
2013-4-2,82.0,71.0,62.3,67.6,63.3,59.6,92,78,49,30.08,29.99,3,1,10,0.00
2013-4-3,82.2,74.2,66.7,70.1,67.2,63.3,91,79,62,30.07,29.98,10,2,15,0.00
2013-4-4,75.7,71.3,66.3,71.0,67.9,63.6,92,89,85,30.04,29.91,5,1,17,0.09
2013-4-5,75.7,68.1,63.4,68.8,64.4,59.8,92,88,78,29.95,29.79,8,1,16,0.32
2013-4-6,76.4,66.7,55.4,65.4,59.9,52.8,91,79,62,30.11,29.95,6,2,14,0.00
2013-4-7,76.2,69.3,61.4,64.9,61.4,57.8,90,76,64,30.16,30.05,3,1,12,0.00
2013-4-8,80.4,69.5,57.9,66.0,61.9,55.3,92,78,57,30.15,30.07,5,1,11,0.00
2013-4-9,78.9,72.0,65.3,68.4,65.1,62.3,92,79,66,30.18,30.07,9,1,14,0.00
2013-4-10,81.2,73.4,63.4,72.2,67.8,60.7,92,83,68,30.12,30.01,8,2,16,0.00
2013-4-11,85.2,77.4,73.2,73.3,71.2,69.8,90,82,67,30.02,29.88,13,4,21,0.00
2013-4-12,89.7,80.0,73.8,75.6,72.0,70.1,91,78,54,29.92,29.83,9,2,19,0.01
2013-4-13,86.0,76.1,71.9,74.2,70.8,68.4,91,84,64,29.98,29.89,7,1,9,0.14
2013-4-14,85.3,77.8,71.3,75.8,72.5,68.9,92,84,72,29.97,29.87,9,2,17,0.42
2013-4-15,84.9,75.4,65.5,76.5,70.9,63.1,92,86,69,30.07,29.93,10,1,14,0.80
2013-4-16,82.4,75.9,70.5,74.9,70.8,68.1,92,85,72,30.14,30.03,5,1,11,0.00
2013-4-17,81.9,75.0,66.1,69.2,67.3,63.4,92,78,62,30.13,30.04,6,1,11,0.00
2013-4-18,83.5,75.6,66.1,72.7,69.7,63.1,92,83,68,30.06,29.98,9,2,15,0.00
2013-4-19,87.8,78.8,74.1,75.4,72.5,70.9,91,82,59,30.04,29.94,10,2,21,0.46
2013-4-20,80.4,72.9,68.3,74.8,68.8,64.8,92,87,79,30.10,29.97,6,1,15,0.15
2013-4-21,98.2,72.9,43.9,78.0,67.7,21.2,92,84,59,30.34,29.43,22,1,32,3.95
2013-4-22,79.8,72.2,68.8,71.6,68.5,66.1,92,88,75,30.06,29.97,14,0,16,0.14
2013-4-23,79.2,71.8,64.8,68.9,64.9,62.4,92,80,63,30.11,29.98,6,1,11,0.00
2013-4-24,81.6,72.4,62.6,66.3,63.3,59.9,92,74,59,30.15,30.05,3,1,10,0.00
2013-4-25,83.6,73.0,62.9,68.5,64.4,60.4,92,76,57,30.20,30.09,6,1,11,0.00
2013-4-26,84.3,74.0,64.6,69.4,66.3,61.5,92,78,60,30.24,30.14,6,1,11,0.00
2013-4-27,80.9,74.3,66.2,69.2,66.2,63.2,91,76,62,30.22,30.11,11,2,15,0.00
2013-4-28,83.0,75.7,71.3,67.1,65.0,63.1,80,70,57,30.14,30.01,12,3,17,0.00
2013-4-29,83.6,76.3,69.2,71.5,68.3,64.8,87,77,63,30.04,29.93,9,2,16,0.00
2013-4-30,81.0,73.7,69.4,73.9,69.7,66.7,92,87,76,30.00,29.94,7,1,13,0.04
2013-5-1,79.7,72.5,68.0,72.7,68.5,65.6,92,88,75,30.01,29.93,8,1,15,0.51
2013-5-2,74.5,71.0,69.2,70.1,68.3,66.8,92,91,86,29.95,29.82,7,1,13,1.84
2013-5-3,86.4,74.6,68.6,72.7,68.9,66.2,92,83,60,29.83,29.66,9,2,13,1.00
2013-5-4,85.3,74.2,66.4,70.4,67.6,64.0,92,81,59,29.79,29.68,6,1,16,0.01
2013-5-5,80.5,71.5,63.2,67.2,58.5,47.9,92,67,33,29.93,29.75,10,2,17,0.00
2013-5-6,81.5,69.8,59.5,65.2,58.9,54.5,89,70,49,30.00,29.91,7,2,14,0.00
2013-5-7,81.8,69.1,56.0,61.3,57.2,52.5,91,68,46,30.06,29.96,9,2,15,0.00
2013-5-8,83.6,71.3,59.8,65.6,61.4,56.9,91,73,49,30.13,30.03,7,1,10,0.00
2013-5-9,82.8,73.5,63.2,70.4,65.8,59.4,90,78,61,30.15,30.08,4,1,9,0.00
2013-5-10,87.6,76.8,68.6,75.4,70.5,65.9,92,82,62,30.14,30.02,9,2,16,0.37
2013-5-11,93.3,77.7,70.2,74.4,69.9,67.3,92,79,46,30.07,29.94,8,2,19,1.55
2013-5-12,87.7,76.7,69.5,76.0,71.3,67.1,92,84,62,30.03,29.95,4,1,10,0.21
2013-5-13,81.3,73.2,67.9,70.7,66.5,59.5,92,80,62,30.12,29.98,5,1,15,0.00
2013-5-14,79.6,71.2,60.2,62.0,58.9,55.5,88,66,52,30.19,30.10,11,1,16,0.00
2013-5-15,80.2,71.4,62.0,65.3,62.0,58.2,91,73,56,30.21,30.11,8,1,13,0.00
2013-5-16,83.0,73.0,62.8,66.5,63.3,59.2,91,73,54,30.13,30.05,7,1,13,0.00
2013-5-17,83.4,75.5,66.8,71.3,68.0,63.5,91,78,66,30.10,30.03,7,1,15,0.00
2013-5-18,86.4,77.4,68.5,75.9,70.7,65.8,92,80,66,30.11,30.04,8,2,13,0.00
2013-5-19,85.8,76.4,70.8,74.0,70.7,67.7,91,83,67,30.10,30.01,7,1,11,0.08
2013-5-20,81.1,75.1,70.5,73.3,70.6,67.6,92,86,76,30.09,29.99,5,1,12,0.18
2013-5-21,86.6,75.3,69.5,73.9,70.2,66.6,92,85,63,30.03,29.95,7,1,16,0.38
2013-5-22,83.3,74.6,68.7,75.1,70.5,66.3,92,87,75,29.97,29.91,8,1,14,0.01
2013-5-23,89.2,77.9,69.5,76.4,71.6,67.1,92,82,65,30.00,29.91,9,1,9,0.00
2013-5-24,91.8,79.8,69.2,75.5,70.1,66.5,92,74,45,30.08,29.95,8,1,10,0.00
2013-5-25,85.5,77.2,70.2,72.8,67.7,63.8,91,74,50,30.19,30.06,9,2,17,0.17
2013-5-26,82.6,74.4,63.3,68.1,64.6,59.4,89,72,61,30.21,30.14,8,2,12,0.00
2013-5-27,81.4,76.1,67.2,71.0,67.4,62.3,87,75,67,30.18,30.10,10,3,15,0.00
2013-5-28,84.4,77.8,73.2,74.6,71.6,68.8,92,82,71,30.14,30.08,11,4,18,0.09
2013-5-29,82.5,77.4,72.6,75.6,72.8,70.2,92,86,75,30.12,30.05,13,3,18,0.74
2013-5-30,84.1,79.5,76.8,75.3,72.4,69.3,87,79,67,30.11,30.04,15,5,24,0.00
2013-5-31,83.7,79.3,76.1,74.8,72.0,69.0,85,78,71,30.09,30.04,15,5,22,0.00
2013-6-1,85.0,79.8,76.2,75.9,74.2,72.4,91,83,73,30.06,29.98,10,3,16,0.02
2013-6-2,90.2,79.8,73.7,78.4,74.4,71.2,92,84,64,30.00,29.90,7,1,13,0.01
2013-6-3,91.9,79.5,74.0,76.8,73.6,71.2,92,83,56,30.01,29.91,5,1,13,0.02
2013-6-4,82.9,77.5,73.3,75.8,72.8,70.1,92,86,67,30.04,29.95,3,0,10,0.04
2013-6-5,84.1,78.3,73.5,77.6,74.4,71.0,92,88,80,30.01,29.92,6,1,12,0.03
2013-6-6,82.7,75.8,72.5,77.7,73.1,69.7,92,91,85,29.92,29.75,10,2,17,3.10
2013-6-7,90.6,79.6,72.6,77.7,73.5,70.2,92,83,63,29.97,29.81,7,2,12,0.00
2013-6-8,90.5,77.7,73.8,78.0,73.6,71.3,92,87,66,30.10,29.96,6,1,12,0.12
2013-6-9,87.7,79.3,72.2,77.4,73.4,69.8,92,83,64,30.11,30.04,8,2,15,0.00
2013-6-10,87.3,81.7,77.4,78.7,76.0,73.7,91,83,71,30.10,30.02,6,2,14,0.00
2013-6-11,88.3,80.4,75.3,79.0,75.5,72.5,92,85,71,30.08,30.01,6,0,12,0.00
2013-6-12,88.5,80.0,73.9,79.1,74.3,70.4,92,83,70,30.07,30.02,8,0,13,0.03
2013-6-13,95.4,81.7,72.3,77.2,72.4,69.4,92,75,47,30.04,29.91,7,1,12,0.00
2013-6-14,93.1,82.8,74.1,76.5,73.5,71.5,92,75,54,29.95,29.85,10,2,14,0.00
2013-6-15,91.1,81.2,73.5,78.6,74.6,70.7,91,81,65,30.06,29.92,9,1,14,0.00
2013-6-16,88.1,82.2,77.0,77.9,76.0,73.8,90,82,70,30.08,30.03,9,2,14,0.00
2013-6-17,93.1,84.0,76.0,79.1,76.1,72.9,91,78,56,30.08,29.99,7,1,14,0.00
2013-6-18,96.5,84.5,77.2,78.9,75.8,74.0,91,76,51,30.06,29.97,10,2,15,0.00
2013-6-19,93.5,82.4,74.7,77.9,73.4,67.1,87,75,57,30.05,29.96,6,1,19,0.00
2013-6-20,91.0,78.1,73.9,77.5,73.2,71.0,92,85,60,30.10,30.02,5,0,9,0.53
2013-6-21,87.0,75.0,70.6,77.3,71.8,67.5,92,90,73,30.14,30.03,6,0,14,1.53
2013-6-22,88.0,78.9,70.8,76.8,72.9,68.4,92,83,68,30.12,30.05,8,1,11,0.00
2013-6-23,88.0,80.7,73.8,77.0,74.1,70.5,91,81,66,30.14,30.06,9,1,16,0.00
2013-6-24,87.7,81.4,74.4,76.7,74.2,71.5,92,79,64,30.18,30.09,7,1,14,0.01
2013-6-25,87.4,81.2,73.9,76.8,74.7,71.1,92,81,68,30.15,30.05,7,1,16,0.00
2013-6-26,89.4,79.4,75.3,78.3,74.9,72.8,92,86,70,30.08,30.02,4,0,14,0.06
2013-6-27,90.3,80.1,72.5,78.4,73.7,70.1,92,82,61,30.06,29.95,8,1,12,0.01
2013-6-28,93.3,80.5,74.1,77.1,73.3,70.2,92,80,56,29.98,29.84,10,1,18,1.40
2013-6-29,94.2,78.9,73.2,78.2,73.3,70.3,92,84,58,29.91,29.82,10,1,22,0.87
2013-6-30,89.1,76.9,73.9,78.9,73.4,71.4,92,89,72,29.94,29.84,5,1,12,2.24
2013-7-1,89.9,76.8,73.2,79.2,73.1,70.7,92,89,71,30.05,29.90,5,1,16,0.88
2013-7-2,86.5,75.7,73.5,80.0,72.8,71.0,92,91,77,30.10,29.99,4,1,16,0.15
2013-7-3,87.6,79.9,74.1,79.0,74.6,71.6,92,84,73,30.14,30.06,12,2,22,0.00
2013-7-4,87.8,80.8,73.6,78.0,75.1,71.1,92,83,71,30.17,30.08,12,3,18,0.13
2013-7-5,87.5,81.3,75.6,77.7,75.1,72.2,91,82,71,30.15,30.07,13,3,18,0.00
2013-7-6,88.2,81.3,75.7,77.2,75.0,72.9,91,82,69,30.13,30.06,6,1,18,0.00
2013-7-7,86.9,80.9,75.4,77.4,75.3,72.6,92,83,72,30.13,30.05,6,2,16,0.03
2013-7-8,87.3,81.1,75.4,77.2,74.9,72.6,92,82,66,30.16,30.09,6,1,12,0.00
2013-7-9,85.7,79.5,74.8,77.1,74.2,72.0,92,84,70,30.17,30.06,4,0,17,0.07
2013-7-10,86.7,80.1,74.0,76.2,73.7,71.2,92,81,70,30.09,30.00,9,2,12,0.00
2013-7-11,92.5,80.3,75.3,78.9,74.0,71.6,92,82,59,30.05,29.94,6,1,17,0.01
2013-7-12,93.0,79.4,72.5,78.6,73.4,69.7,92,83,60,29.97,29.89,2,0,8,0.00
2013-7-13,88.1,77.6,73.4,78.2,73.0,70.3,92,86,65,30.02,29.92,6,1,13,0.19
2013-7-14,87.5,75.6,71.8,76.4,71.9,69.3,92,89,69,30.11,29.99,12,1,15,0.25
2013-7-15,84.7,77.0,71.9,77.2,72.5,69.4,92,86,75,30.12,30.03,6,0,10,0.00
2013-7-16,85.9,77.2,73.7,76.9,73.0,71.1,92,87,73,30.17,30.08,7,1,16,0.24
2013-7-17,82.5,76.1,73.3,76.2,72.5,70.8,92,89,77,30.14,30.07,6,1,14,0.32
2013-7-18,84.4,76.2,72.5,76.3,72.2,70.1,92,88,74,30.14,30.06,6,1,12,0.16
2013-7-19,88.0,78.3,72.5,79.5,73.7,70.1,92,86,76,30.13,30.04,5,1,12,0.00
2013-7-20,87.5,77.4,72.6,80.2,73.5,69.2,92,88,78,30.11,30.04,3,0,12,0.16
2013-7-21,93.1,78.8,71.7,78.6,73.2,68.9,92,84,60,30.14,30.04,10,2,17,0.69
2013-7-22,94.5,79.9,71.6,79.9,72.7,69.2,92,80,53,30.14,30.06,7,1,13,0.00
2013-7-23,93.4,82.4,75.1,77.3,74.3,72.0,91,78,57,30.10,29.96,7,1,15,0.00
2013-7-24,91.3,78.8,73.5,76.6,73.6,70.7,92,85,61,30.00,29.90,10,1,28,0.21
2013-7-25,86.2,78.9,75.5,77.8,74.3,72.3,92,86,76,30.00,29.89,5,1,14,0.17
2013-7-26,89.2,79.3,74.5,79.1,74.4,72.0,92,85,69,30.00,29.95,5,1,13,0.37
2013-7-27,91.1,81.1,74.9,79.5,75.0,72.4,92,82,64,29.99,29.91,5,1,11,0.00
2013-7-28,90.8,78.8,71.8,77.4,74.1,67.7,92,86,64,30.06,29.94,8,0,23,1.67
2013-7-29,89.5,79.7,73.1,78.3,74.1,70.6,92,84,64,30.14,30.03,5,0,11,0.00
2013-7-30,88.1,80.6,75.0,79.6,75.6,72.5,92,85,74,30.17,30.09,6,0,11,0.00
2013-7-31,91.2,82.1,76.3,78.1,75.2,73.8,92,80,63,30.13,30.02,9,2,14,0.00
2013-8-1,91.1,82.4,75.4,77.5,74.7,72.3,91,79,62,30.07,29.96,4,1,15,0.00
2013-8-2,91.3,81.1,75.4,77.2,74.4,72.3,92,81,61,30.03,29.94,3,0,13,0.00
2013-8-3,83.0,77.9,75.2,78.1,74.0,70.6,92,88,71,30.11,30.02,3,0,11,0.05
2013-8-4,93.8,80.2,75.5,78.9,74.4,72.7,91,83,59,30.10,29.99,4,0,19,0.01
2013-8-5,93.4,79.5,74.4,80.1,74.7,71.6,92,86,59,30.02,29.92,4,1,15,0.29
2013-8-6,90.2,80.7,74.8,79.5,75.3,72.3,92,84,69,29.97,29.90,2,0,8,0.00
2013-8-7,90.6,83.0,77.3,79.2,76.2,74.5,91,81,65,29.98,29.92,7,0,16,0.00
2013-8-8,90.8,83.6,78.3,78.1,75.9,74.1,90,78,64,30.03,29.95,11,2,16,0.00
2013-8-9,90.8,82.9,76.2,78.3,75.0,70.8,91,78,59,30.08,29.98,8,1,16,0.03
2013-8-10,93.6,83.6,76.7,78.6,75.7,72.8,91,78,59,30.13,30.06,7,1,14,0.00
2013-8-11,90.6,82.4,77.7,78.3,75.8,73.2,91,81,66,30.15,30.08,1,0,11,0.00
2013-8-12,89.3,81.4,74.2,77.4,74.3,71.1,91,80,63,30.12,30.02,2,0,8,0.00
2013-8-13,92.9,83.2,75.3,79.2,75.5,72.2,91,79,64,30.07,29.95,7,1,13,0.00
2013-8-14,96.4,84.3,77.3,79.2,75.2,71.3,89,75,55,30.02,29.92,7,1,14,0.00
2013-8-15,92.5,82.6,76.7,78.0,75.6,73.2,89,80,62,30.05,29.95,4,0,10,0.00
2013-8-16,93.5,83.6,78.0,78.7,76.6,74.5,90,80,61,30.06,29.98,10,1,12,0.01
2013-8-17,92.4,84.3,79.1,79.7,77.3,75.7,91,80,64,30.09,30.00,9,1,13,0.00
2013-8-18,89.2,82.9,77.8,78.9,76.6,75.0,91,82,68,30.10,30.01,11,1,17,0.08
2013-8-19,92.3,84.0,78.3,78.4,76.7,74.5,91,79,62,30.09,29.98,8,1,14,0.00
2013-8-20,90.6,83.1,77.5,77.9,76.0,73.7,90,80,63,30.09,30.00,8,1,15,0.01
2013-8-21,89.7,81.9,77.1,79.1,76.5,73.4,91,84,69,30.10,30.02,11,1,16,0.46
2013-8-22,89.9,82.3,77.4,79.1,76.6,74.6,91,83,68,30.08,29.98,7,0,14,0.00
2013-8-23,87.0,80.8,76.4,78.7,76.0,73.1,91,85,75,30.02,29.95,5,0,16,1.05
2013-8-24,90.0,81.7,76.5,78.3,75.6,73.7,91,82,62,30.09,29.99,4,0,20,0.00
2013-8-25,85.8,80.5,77.3,76.8,75.2,74.0,91,84,71,30.15,30.06,0,0,10,0.01
2013-8-26,89.1,81.2,75.0,76.5,74.5,72.2,91,81,65,30.13,30.02,2,0,11,0.00
2013-8-27,86.5,79.5,74.3,76.2,72.4,70.1,91,79,65,30.05,29.99,2,0,13,0.05
2013-8-28,87.7,79.2,73.7,76.0,72.9,70.6,90,82,67,30.05,29.97,2,0,12,0.00
2013-8-29,91.2,80.9,73.4,77.4,73.7,70.6,91,80,62,30.04,29.94,0,0,11,0.01
2013-8-30,90.1,81.2,75.2,77.6,74.0,72.0,90,79,65,29.99,29.91,2,0,9,0.00
2013-8-31,92.0,80.9,75.1,78.1,74.0,68.9,90,80,60,29.99,29.90,11,1,17,0.00
2013-9-1,94.6,79.2,74.5,77.6,72.7,69.9,88,81,54,30.00,29.94,4,0,10,0.02
2013-9-2,93.0,77.5,72.3,77.7,72.2,69.1,91,84,61,30.02,29.92,9,0,18,1.62
2013-9-3,90.5,79.6,73.5,77.6,73.6,70.7,91,83,63,30.02,29.94,2,0,9,0.00
2013-9-4,88.6,81.2,75.9,79.1,75.8,72.8,90,84,69,30.08,29.97,2,0,8,0.00
2013-9-5,90.2,82.8,77.8,79.5,76.9,74.6,90,83,71,30.08,30.01,1,0,9,0.00
2013-9-6,91.2,81.4,76.2,78.7,75.5,73.1,90,83,64,30.05,29.96,1,0,10,0.01
2013-9-7,89.0,79.2,74.3,78.4,74.1,70.8,91,85,69,30.00,29.92,2,0,5,0.01
2013-9-8,87.7,79.2,73.0,77.7,73.1,70.2,91,82,69,29.97,29.87,1,0,8,0.08
2013-9-9,88.0,79.9,74.2,76.8,73.5,71.1,91,81,68,30.02,29.92,2,0,13,0.26
2013-9-10,87.6,81.5,75.8,76.7,73.5,70.3,85,77,65,30.08,29.98,8,1,15,0.04
2013-9-11,87.1,80.6,75.8,76.9,73.9,71.3,88,80,67,30.07,30.00,5,0,11,0.00
2013-9-12,84.3,77.4,74.5,76.5,73.2,71.4,90,87,71,30.02,29.91,3,0,15,0.02
2013-9-13,92.9,79.4,72.7,76.2,72.7,69.6,90,81,56,29.92,29.81,2,0,9,0.00
2013-9-14,92.9,80.6,75.1,78.2,74.9,71.6,89,83,61,29.97,29.83,1,0,7,0.80
2013-9-15,88.1,80.1,73.8,79.4,75.0,70.4,89,85,72,30.08,29.95,6,0,14,0.26
2013-9-16,85.7,76.7,74.0,78.4,72.7,70.8,90,88,78,30.06,29.99,10,0,16,0.04
2013-9-17,84.3,76.0,73.5,76.6,72.0,70.1,89,87,74,30.06,29.96,2,0,17,1.31
2013-9-18,85.5,77.7,73.6,76.9,72.7,70.2,89,85,72,30.02,29.94,4,0,18,0.42
2013-9-19,83.7,77.4,74.5,76.3,72.5,69.7,88,85,74,30.03,29.95,3,0,15,0.89
2013-9-20,85.9,78.0,71.2,71.4,69.5,67.6,89,76,59,30.02,29.91,1,0,14,0.00
2013-9-21,86.8,78.6,71.9,73.2,71.0,68.2,88,78,61,29.93,29.78,1,0,8,0.00
2013-9-22,92.2,80.9,73.9,76.5,73.0,69.8,88,78,59,29.86,29.75,6,1,13,0.00
2013-9-23,89.5,78.1,74.8,77.6,72.9,71.0,88,85,64,29.98,29.84,4,0,14,0.95
2013-9-24,86.0,76.9,74.5,79.9,72.5,70.4,88,86,79,29.97,29.85,6,0,11,0.14
2013-9-25,84.8,78.1,73.7,75.5,71.4,69.6,87,81,64,29.87,29.78,5,1,15,0.00
2013-9-26,89.3,80.7,74.7,78.5,74.2,70.6,87,81,64,29.84,29.76,6,1,21,0.00
2013-9-27,86.5,77.0,70.9,75.5,70.7,66.8,87,81,65,29.94,29.83,3,0,14,0.00
2013-9-28,84.3,77.8,72.6,75.7,70.7,68.2,87,79,68,29.98,29.90,8,0,13,0.11
2013-9-29,85.5,77.7,70.5,74.6,70.0,66.1,87,78,64,29.97,29.90,1,0,8,0.00
2013-9-30,86.9,77.5,70.2,74.2,70.3,65.8,86,79,64,30.02,29.92,2,0,8,0.00
2013-10-1,86.6,78.3,70.8,74.8,70.7,66.4,86,78,66,30.05,29.97,4,0,9,0.00
2013-10-2,84.3,79.4,73.2,73.9,71.6,68.8,86,77,68,30.05,29.99,5,1,11,0.00
2013-10-3,86.0,77.6,69.8,74.6,70.4,65.1,86,79,63,30.07,29.98,3,0,9,0.00
2013-10-4,86.9,78.0,71.6,74.4,70.0,66.5,85,77,61,30.07,30.00,6,0,9,0.00
2013-10-5,86.2,78.1,70.1,74.8,70.0,64.7,85,77,62,30.05,29.96,4,0,10,0.00
2013-10-6,87.6,79.6,71.8,76.6,72.1,66.0,84,78,61,29.98,29.88,2,0,10,0.00
2013-10-7,87.1,76.7,73.5,75.7,69.9,67.1,83,80,65,29.89,29.80,4,1,10,0.77
2013-10-8,89.0,78.7,74.0,76.0,69.6,67.1,82,74,57,29.92,29.81,5,1,12,0.00
2013-10-9,86.1,77.2,72.8,75.6,69.5,65.8,82,77,69,30.00,29.89,12,2,18,0.01
2013-10-10,84.6,74.4,67.1,73.3,65.9,59.3,81,75,67,30.04,29.97,8,1,12,0.00
2013-10-11,85.3,74.0,64.3,68.8,63.8,57.0,80,71,54,30.04,29.94,2,0,9,0.00
2013-10-12,87.6,75.7,67.7,71.1,65.8,59.2,80,72,52,30.04,29.96,2,0,6,0.00
2013-10-13,84.9,74.8,65.6,68.9,64.1,57.5,79,70,52,30.07,29.98,3,0,12,0.00
2013-10-14,85.1,75.3,67.7,73.0,66.0,58.0,78,73,64,30.03,29.92,5,1,13,0.00
2013-10-15,87.2,74.9,68.1,72.1,64.6,57.5,78,70,58,29.98,29.88,3,0,6,0.00
2013-10-16,87.1,75.9,69.2,73.8,65.7,57.4,77,71,60,29.96,29.89,3,0,10,0.00
2013-10-17,86.5,76.5,68.8,75.0,65.8,56.6,76,70,63,29.97,29.90,3,0,7,0.00
2013-10-18,88.8,77.2,68.8,75.2,66.2,55.1,75,69,60,29.99,29.91,5,1,10,0.00
2013-10-19,89.6,79.2,70.1,76.0,68.0,56.2,75,69,58,29.97,29.87,5,1,12,0.00
2013-10-20,88.1,80.1,75.0,77.2,67.9,58.9,73,67,55,29.96,29.87,3,0,7,0.00
2013-10-21,88.4,80.3,72.8,76.9,67.1,55.3,72,64,53,30.00,29.90,4,1,9,0.00
2013-10-22,91.8,82.5,77.0,76.7,68.2,58.6,72,62,53,29.96,29.81,7,1,14,0.00
2013-10-23,82.1,76.8,69.8,71.3,63.1,54.0,72,63,50,29.97,29.80,4,0,11,0.00
2013-10-24,76.7,69.9,62.8,65.3,60.0,54.0,73,71,62,30.12,29.98,4,0,15,0.00
2013-10-25,81.1,70.6,63.2,67.9,59.0,50.7,73,67,61,30.19,30.11,6,1,15,0.00
2013-10-26,81.3,69.6,60.8,64.5,56.8,47.7,73,64,52,30.18,30.08,3,0,9,0.00
2013-10-27,80.4,68.0,59.3,64.8,54.8,45.4,72,63,56,30.11,30.06,6,0,12,0.00
2013-10-28,82.9,70.8,62.5,70.4,57.9,46.8,72,64,56,30.16,30.07,8,1,12,0.00
2013-10-29,82.9,73.4,64.9,70.4,58.7,48.2,71,60,51,30.20,30.12,5,1,15,0.02
2013-10-30,82.2,75.5,66.9,70.0,62.9,48.6,71,65,48,30.21,30.11,11,1,14,0.01
2013-10-31,83.6,77.7,68.0,71.2,65.9,51.1,71,67,52,30.13,30.00,9,2,16,0.01
2013-11-1,88.6,78.2,71.5,72.9,62.4,50.8,71,59,45,30.02,29.87,8,1,13,0.00
2013-11-2,87.0,74.8,67.8,71.3,60.3,49.8,72,61,46,29.95,29.82,6,1,18,0.00
2013-11-3,79.7,71.2,63.3,61.6,57.0,54.2,73,61,44,30.07,29.92,11,1,18,0.00
2013-11-4,79.8,74.5,67.6,65.5,60.9,54.1,72,63,52,30.13,30.05,9,2,22,0.00
2013-11-5,82.7,76.8,73.0,71.1,65.5,54.4,71,68,52,30.13,30.06,7,2,17,0.08
2013-11-6,83.1,77.2,73.2,70.3,65.1,57.1,71,66,57,30.09,30.01,5,0,11,0.00
2013-11-7,83.4,74.8,68.8,71.3,59.7,48.2,70,60,46,30.03,29.94,3,0,9,0.00
2013-11-8,80.4,73.8,67.1,69.3,60.0,47.5,70,62,46,30.08,29.97,9,2,19,0.00
2013-11-9,79.9,76.1,72.9,68.8,65.2,60.5,70,69,65,30.16,30.07,6,2,16,0.00
2013-11-10,80.9,73.9,68.5,69.8,59.5,49.4,70,61,47,30.15,30.07,3,0,10,0.00
2013-11-11,80.8,73.5,68.2,69.3,57.2,46.7,70,57,44,30.15,30.07,4,0,10,0.00
2013-11-12,80.4,72.3,67.2,69.3,56.5,45.6,69,58,43,30.09,29.99,2,0,5,0.00
2013-11-13,72.1,68.3,65.6,61.4,55.4,50.6,70,63,54,30.27,30.03,9,3,23,0.01
2013-11-14,74.1,70.1,66.2,61.1,57.5,52.4,71,64,55,30.28,30.17,8,2,14,0.00
2013-11-15,78.2,73.6,69.9,66.0,61.0,49.4,71,65,48,30.18,30.07,10,2,12,0.02
2013-11-16,82.3,75.2,69.2,68.9,60.3,47.7,70,60,44,30.11,30.03,7,2,13,0.08
2013-11-17,83.1,77.0,71.3,71.0,60.2,48.2,68,57,43,30.09,30.00,8,1,14,0.00
2013-11-18,86.7,76.8,69.5,72.7,58.7,45.6,69,54,41,30.02,29.92,5,0,6,0.00
2013-11-19,79.0,74.0,69.1,66.8,56.5,45.2,68,55,41,29.95,29.87,7,1,12,0.00
2013-11-20,76.9,73.5,69.2,61.5,49.9,45.9,60,44,39,30.09,29.93,5,1,13,3.44
2013-11-21,76.4,74.4,71.9,61.0,51.8,45.6,59,45,39,30.17,30.08,9,2,15,2.36
2013-11-22,79.6,75.8,71.5,67.7,62.4,55.7,68,63,50,30.19,30.10,8,1,17,0.00
2013-11-23,80.9,73.0,66.6,68.5,56.7,43.1,68,57,41,30.10,29.99,4,0,7,0.00
2013-11-24,76.6,69.2,65.2,64.4,51.2,40.9,68,54,39,30.20,30.00,7,2,19,0.01
2013-11-25,73.9,70.5,67.7,61.5,57.0,46.2,69,63,45,30.24,30.09,10,3,16,0.06
2013-11-26,82.4,76.5,71.7,69.5,58.1,49.5,65,53,40,30.08,29.80,7,3,20,0.01
2013-11-27,75.5,68.7,51.5,61.8,51.9,40.1,70,56,37,30.14,29.75,10,3,18,0.01
2013-11-28,70.4,56.9,41.5,58.7,45.0,30.0,69,65,54,30.30,30.15,5,2,14,0.00
2013-11-29,75.8,65.8,56.0,63.6,49.9,37.1,68,57,44,30.31,30.24,12,2,19,0.00
2013-11-30,76.5,68.5,60.5,64.7,50.0,37.1,68,53,38,30.25,30.16,5,1,15,0.38
2013-12-1,68.2,67.1,64.7,41.3,39.6,37.9,38,36,36,30.15,29.98,4,0,8,1.10
2013-12-2,69.7,66.7,61.3,58.7,44.5,38.0,68,46,36,29.96,29.82,3,0,7,0.00
2013-12-3,76.4,68.2,63.2,64.2,51.0,37.9,71,55,39,30.00,29.90,3,0,10,0.00
2013-12-4,83.6,71.2,61.5,69.1,51.9,36.3,70,51,35,30.09,30.00,5,1,10,0.00
2013-12-5,80.9,72.1,63.1,69.4,52.0,36.9,68,50,34,30.18,30.09,10,1,13,0.15
2013-12-6,78.7,71.5,67.4,64.8,48.2,38.8,64,45,34,30.20,30.11,5,1,10,0.59
2013-12-7,79.3,71.2,64.5,67.8,50.0,37.0,69,48,34,30.24,30.16,3,0,8,0.00
2013-12-8,79.7,72.8,65.3,67.8,52.0,37.8,68,49,34,30.23,30.13,6,1,12,0.00
2013-12-9,82.8,73.3,66.0,69.8,53.5,37.6,69,51,34,30.19,30.10,8,1,13,0.00
2013-12-10,84.8,73.4,64.0,69.7,52.6,37.7,67,49,33,30.17,30.07,6,0,11,0.00
2013-12-11,80.6,73.5,66.5,66.9,50.9,39.0,64,46,34,30.23,30.14,3,0,7,0.00
2013-12-12,71.0,68.0,65.2,59.5,49.1,37.8,69,53,33,30.27,30.16,13,2,22,0.00
2013-12-13,74.5,69.6,65.3,61.2,58.3,54.9,70,67,58,30.24,30.13,6,1,13,0.00
2013-12-14,80.0,75.0,71.0,66.7,57.6,47.1,65,55,40,30.13,29.98,9,3,16,0.02
2013-12-15,75.9,70.6,66.1,54.0,45.1,40.2,65,41,32,30.09,29.92,5,1,13,0.06
2013-12-16,69.1,61.9,54.0,57.7,47.4,37.2,68,59,48,30.20,30.08,4,1,14,0.00
2013-12-17,74.0,62.0,51.9,62.1,43.7,28.8,67,52,35,30.22,30.13,2,0,8,0.00
2013-12-18,70.6,59.5,51.3,56.5,43.8,31.4,69,57,38,30.26,30.17,6,0,13,0.00
2013-12-19,73.8,61.7,50.7,60.8,45.0,30.4,69,55,40,30.27,30.18,3,0,13,0.00
2013-12-20,78.1,68.3,57.8,65.3,49.0,32.8,68,51,35,30.22,30.13,7,0,15,0.00
2013-12-21,79.6,73.6,68.9,62.5,47.1,38.6,56,39,32,30.16,30.07,7,1,17,0.00
2013-12-22,83.6,75.1,69.5,70.5,51.6,39.2,65,45,33,30.16,30.08,7,2,14,0.00
2013-12-23,86.1,75.7,69.6,72.5,52.9,39.2,64,46,33,30.18,30.09,5,1,10,0.01
2013-12-24,74.2,67.3,61.9,58.5,47.4,36.6,67,51,33,30.21,30.11,9,1,18,0.06
2013-12-25,73.9,68.8,62.7,61.6,56.7,45.8,70,65,54,30.22,30.14,5,1,14,0.00
2013-12-26,76.5,69.2,62.9,61.1,47.3,37.4,65,46,35,30.20,30.09,3,0,13,0.00
2013-12-27,77.4,71.6,66.7,62.9,48.0,37.5,62,44,33,30.22,30.13,5,0,13,0.00
2013-12-28,78.6,73.0,65.8,63.1,50.0,36.7,61,45,33,30.20,30.03,12,2,18,0.02
2013-12-29,81.2,75.1,71.4,66.0,50.2,40.0,60,42,32,30.04,29.90,9,2,18,0.07
2013-12-30,73.4,67.8,59.9,54.7,45.4,36.2,59,45,35,30.16,29.99,3,0,7,0.00
2013-12-31,71.0,69.3,67.5,58.7,55.9,51.8,65,62,57,30.25,30.19,3,0,11,0.00
2014-1-1,71.7,70.5,68.8,58.1,44.4,38.5,64,41,32,30.23,30.06,2,0,8,0.54
2014-1-2,83.2,74.6,69.7,69.3,51.3,39.4,65,46,32,30.05,29.83,9,2,20,0.01